sensor_id;sensor_type;location;lat;lon;timestamp;P1;durP1;ratioP1;P2;durP2;ratioP2
42514;SDS011;28144;49.920;18.730;2023-05-07T00:01:59;24.87;;;17.43;;
42514;SDS011;28144;49.920;18.730;2023-05-07T00:04:26;22.58;;;16.13;;
42514;SDS011;28144;49.920;18.730;2023-05-07T00:06:53;22.30;;;16.30;;
42514;SDS011;28144;49.920;18.730;2023-05-07T00:09:19;25.43;;;16.80;;
42514;SDS011;28144;49.920;18.730;2023-05-07T00:11:44;27.00;;;18.10;;
42514;SDS011;28144;49.920;18.730;2023-05-07T00:14:11;25.60;;;16.98;;
42514;SDS011;28144;49.920;18.730;2023-05-07T00:16:36;23.53;;;17.73;;
42514;SDS011;28144;49.920;18.730;2023-05-07T00:19:03;23.70;;;17.13;;
42514;SDS011;28144;49.920;18.730;2023-05-07T00:21:28;23.67;;;16.52;;
42514;SDS011;28144;49.920;18.730;2023-05-07T00:23:56;21.25;;;15.27;;
42514;SDS011;28144;49.920;18.730;2023-05-07T00:26:21;25.70;;;17.20;;
42514;SDS011;28144;49.920;18.730;2023-05-07T00:28:47;18.65;;;15.18;;
42514;SDS011;28144;49.920;18.730;2023-05-07T00:31:13;25.13;;;15.60;;
42514;SDS011;28144;49.920;18.730;2023-05-07T00:33:39;23.30;;;17.08;;
42514;SDS011;28144;49.920;18.730;2023-05-07T00:36:04;27.73;;;18.90;;
42514;SDS011;28144;49.920;18.730;2023-05-07T00:38:31;22.33;;;16.60;;
42514;SDS011;28144;49.920;18.730;2023-05-07T00:40:56;22.53;;;17.43;;
42514;SDS011;28144;49.920;18.730;2023-05-07T00:43:22;22.93;;;17.57;;
42514;SDS011;28144;49.920;18.730;2023-05-07T00:45:48;24.33;;;17.87;;
42514;SDS011;28144;49.920;18.730;2023-05-07T00:48:14;28.75;;;19.23;;
42514;SDS011;28144;49.920;18.730;2023-05-07T00:50:39;24.63;;;16.27;;
42514;SDS011;28144;49.920;18.730;2023-05-07T00:53:06;25.70;;;18.48;;
42514;SDS011;28144;49.920;18.730;2023-05-07T00:57:58;21.40;;;16.33;;
42514;SDS011;28144;49.920;18.730;2023-05-07T01:00:26;25.17;;;17.37;;
42514;SDS011;28144;49.920;18.730;2023-05-07T01:02:52;26.30;;;17.73;;
42514;SDS011;28144;49.920;18.730;2023-05-07T01:05:18;32.00;;;18.67;;
42514;SDS011;28144;49.920;18.730;2023-05-07T01:07:44;31.05;;;21.65;;
42514;SDS011;28144;49.920;18.730;2023-05-07T01:10:10;28.95;;;20.35;;
42514;SDS011;28144;49.920;18.730;2023-05-07T01:12:37;28.48;;;20.50;;
42514;SDS011;28144;49.920;18.730;2023-05-07T01:15:04;28.95;;;19.17;;
42514;SDS011;28144;49.920;18.730;2023-05-07T01:17:41;28.00;;;18.88;;
42514;SDS011;28144;49.920;18.730;2023-05-07T01:20:07;26.42;;;18.67;;
42514;SDS011;28144;49.920;18.730;2023-05-07T01:22:34;26.95;;;19.08;;
42514;SDS011;28144;49.920;18.730;2023-05-07T01:25:02;30.55;;;20.92;;
42514;SDS011;28144;49.920;18.730;2023-05-07T01:27:28;22.42;;;17.77;;
42514;SDS011;28144;49.920;18.730;2023-05-07T01:29:54;22.00;;;17.33;;
42514;SDS011;28144;49.920;18.730;2023-05-07T01:32:27;23.83;;;17.08;;
42514;SDS011;28144;49.920;18.730;2023-05-07T01:35:05;22.17;;;17.70;;
42514;SDS011;28144;49.920;18.730;2023-05-07T01:37:31;24.05;;;19.10;;
42514;SDS011;28144;49.920;18.730;2023-05-07T01:39:57;26.10;;;21.17;;
42514;SDS011;28144;49.920;18.730;2023-05-07T01:42:23;22.00;;;18.58;;
42514;SDS011;28144;49.920;18.730;2023-05-07T01:44:49;24.37;;;18.60;;
42514;SDS011;28144;49.920;18.730;2023-05-07T01:47:15;27.63;;;19.25;;
42514;SDS011;28144;49.920;18.730;2023-05-07T01:49:41;31.13;;;22.70;;
42514;SDS011;28144;49.920;18.730;2023-05-07T01:52:08;26.85;;;17.60;;
42514;SDS011;28144;49.920;18.730;2023-05-07T01:54:34;20.55;;;16.08;;
42514;SDS011;28144;49.920;18.730;2023-05-07T01:57:01;23.38;;;18.02;;
42514;SDS011;28144;49.920;18.730;2023-05-07T01:59:26;22.20;;;16.17;;
42514;SDS011;28144;49.920;18.730;2023-05-07T02:01:52;22.90;;;17.03;;
42514;SDS011;28144;49.920;18.730;2023-05-07T02:04:18;23.20;;;16.17;;
42514;SDS011;28144;49.920;18.730;2023-05-07T02:06:44;22.77;;;17.63;;
42514;SDS011;28144;49.920;18.730;2023-05-07T02:09:10;25.03;;;16.57;;
42514;SDS011;28144;49.920;18.730;2023-05-07T02:14:02;22.47;;;17.53;;
42514;SDS011;28144;49.920;18.730;2023-05-07T02:16:28;24.65;;;18.42;;
42514;SDS011;28144;49.920;18.730;2023-05-07T02:18:53;25.20;;;19.03;;
42514;SDS011;28144;49.920;18.730;2023-05-07T02:21:20;29.85;;;20.38;;
42514;SDS011;28144;49.920;18.730;2023-05-07T02:23:46;29.20;;;17.90;;
42514;SDS011;28144;49.920;18.730;2023-05-07T02:26:12;23.73;;;19.15;;
42514;SDS011;28144;49.920;18.730;2023-05-07T02:28:37;26.17;;;19.63;;
42514;SDS011;28144;49.920;18.730;2023-05-07T02:31:03;27.42;;;21.88;;
42514;SDS011;28144;49.920;18.730;2023-05-07T02:33:29;24.93;;;20.07;;
42514;SDS011;28144;49.920;18.730;2023-05-07T02:35:56;27.50;;;21.40;;
42514;SDS011;28144;49.920;18.730;2023-05-07T02:38:22;27.47;;;20.07;;
42514;SDS011;28144;49.920;18.730;2023-05-07T02:43:14;28.98;;;22.23;;
42514;SDS011;28144;49.920;18.730;2023-05-07T02:45:40;25.27;;;19.15;;
42514;SDS011;28144;49.920;18.730;2023-05-07T02:48:05;27.33;;;20.70;;
42514;SDS011;28144;49.920;18.730;2023-05-07T02:50:31;24.48;;;19.48;;
42514;SDS011;28144;49.920;18.730;2023-05-07T02:52:57;27.07;;;19.43;;
42514;SDS011;28144;49.920;18.730;2023-05-07T02:55:23;24.27;;;17.58;;
42514;SDS011;28144;49.920;18.730;2023-05-07T02:57:49;24.07;;;18.73;;
42514;SDS011;28144;49.920;18.730;2023-05-07T03:00:16;26.02;;;18.08;;
42514;SDS011;28144;49.920;18.730;2023-05-07T03:02:43;24.52;;;18.33;;
42514;SDS011;28144;49.920;18.730;2023-05-07T03:05:10;25.23;;;18.85;;
42514;SDS011;28144;49.920;18.730;2023-05-07T03:07:37;23.33;;;18.02;;
42514;SDS011;28144;49.920;18.730;2023-05-07T03:10:03;24.15;;;18.67;;
42514;SDS011;28144;49.920;18.730;2023-05-07T03:12:29;25.23;;;19.98;;
42514;SDS011;28144;49.920;18.730;2023-05-07T03:14:55;25.15;;;19.58;;
42514;SDS011;28144;49.920;18.730;2023-05-07T03:17:21;31.03;;;24.17;;
42514;SDS011;28144;49.920;18.730;2023-05-07T03:19:47;24.02;;;19.40;;
42514;SDS011;28144;49.920;18.730;2023-05-07T03:22:12;27.00;;;18.83;;
42514;SDS011;28144;49.920;18.730;2023-05-07T03:24:38;30.10;;;21.88;;
42514;SDS011;28144;49.920;18.730;2023-05-07T03:27:04;33.87;;;23.83;;
42514;SDS011;28144;49.920;18.730;2023-05-07T03:29:30;25.60;;;19.20;;
42514;SDS011;28144;49.920;18.730;2023-05-07T03:31:56;26.03;;;19.87;;
42514;SDS011;28144;49.920;18.730;2023-05-07T03:34:22;24.75;;;17.80;;
42514;SDS011;28144;49.920;18.730;2023-05-07T03:36:48;24.13;;;17.13;;
42514;SDS011;28144;49.920;18.730;2023-05-07T03:39:14;24.15;;;18.15;;
42514;SDS011;28144;49.920;18.730;2023-05-07T03:41:40;20.90;;;14.10;;
42514;SDS011;28144;49.920;18.730;2023-05-07T03:44:07;24.15;;;15.77;;
42514;SDS011;28144;49.920;18.730;2023-05-07T03:46:34;14.33;;;12.50;;
42514;SDS011;28144;49.920;18.730;2023-05-07T03:49:01;16.57;;;11.40;;
42514;SDS011;28144;49.920;18.730;2023-05-07T03:51:27;15.77;;;11.90;;
42514;SDS011;28144;49.920;18.730;2023-05-07T03:53:54;14.10;;;10.52;;
42514;SDS011;28144;49.920;18.730;2023-05-07T03:56:22;14.90;;;11.38;;
42514;SDS011;28144;49.920;18.730;2023-05-07T03:58:55;13.52;;;9.38;;
42514;SDS011;28144;49.920;18.730;2023-05-07T04:01:22;15.07;;;9.45;;
42514;SDS011;28144;49.920;18.730;2023-05-07T04:04:04;14.80;;;9.50;;
42514;SDS011;28144;49.920;18.730;2023-05-07T04:06:31;13.70;;;10.33;;
42514;SDS011;28144;49.920;18.730;2023-05-07T04:08:57;13.27;;;10.38;;
42514;SDS011;28144;49.920;18.730;2023-05-07T04:11:24;16.35;;;10.10;;
42514;SDS011;28144;49.920;18.730;2023-05-07T04:13:50;12.90;;;9.35;;
42514;SDS011;28144;49.920;18.730;2023-05-07T04:16:19;18.00;;;10.00;;
42514;SDS011;28144;49.920;18.730;2023-05-07T04:18:47;16.00;;;10.57;;
42514;SDS011;28144;49.920;18.730;2023-05-07T04:21:17;17.90;;;11.17;;
42514;SDS011;28144;49.920;18.730;2023-05-07T04:23:44;14.67;;;11.43;;
42514;SDS011;28144;49.920;18.730;2023-05-07T04:26:11;21.90;;;12.33;;
42514;SDS011;28144;49.920;18.730;2023-05-07T04:28:38;16.67;;;11.48;;
42514;SDS011;28144;49.920;18.730;2023-05-07T04:31:05;16.80;;;11.50;;
42514;SDS011;28144;49.920;18.730;2023-05-07T04:33:31;16.88;;;10.70;;
42514;SDS011;28144;49.920;18.730;2023-05-07T04:38:32;16.13;;;11.80;;
42514;SDS011;28144;49.920;18.730;2023-05-07T04:41:05;15.43;;;10.90;;
42514;SDS011;28144;49.920;18.730;2023-05-07T04:43:31;19.90;;;11.23;;
42514;SDS011;28144;49.920;18.730;2023-05-07T04:45:59;21.77;;;11.73;;
42514;SDS011;28144;49.920;18.730;2023-05-07T04:48:26;16.15;;;10.85;;
42514;SDS011;28144;49.920;18.730;2023-05-07T04:50:53;19.17;;;11.73;;
42514;SDS011;28144;49.920;18.730;2023-05-07T04:53:23;18.37;;;13.37;;
42514;SDS011;28144;49.920;18.730;2023-05-07T04:55:54;19.58;;;15.20;;
42514;SDS011;28144;49.920;18.730;2023-05-07T04:58:22;21.07;;;15.10;;
42514;SDS011;28144;49.920;18.730;2023-05-07T05:00:49;22.90;;;15.23;;
42514;SDS011;28144;49.920;18.730;2023-05-07T05:03:15;30.35;;;16.30;;
42514;SDS011;28144;49.920;18.730;2023-05-07T05:05:43;23.88;;;16.70;;
42514;SDS011;28144;49.920;18.730;2023-05-07T05:08:09;31.83;;;17.33;;
42514;SDS011;28144;49.920;18.730;2023-05-07T05:10:36;27.92;;;16.05;;
42514;SDS011;28144;49.920;18.730;2023-05-07T05:13:02;29.83;;;17.90;;
42514;SDS011;28144;49.920;18.730;2023-05-07T05:15:28;33.85;;;20.27;;
42514;SDS011;28144;49.920;18.730;2023-05-07T05:17:55;24.40;;;16.92;;
42514;SDS011;28144;49.920;18.730;2023-05-07T05:20:24;23.50;;;15.13;;
42514;SDS011;28144;49.920;18.730;2023-05-07T05:22:51;25.67;;;16.30;;
42514;SDS011;28144;49.920;18.730;2023-05-07T05:25:17;26.10;;;17.15;;
42514;SDS011;28144;49.920;18.730;2023-05-07T05:27:44;29.08;;;20.17;;
42514;SDS011;28144;49.920;18.730;2023-05-07T05:30:10;27.38;;;18.70;;
42514;SDS011;28144;49.920;18.730;2023-05-07T05:32:36;26.65;;;17.98;;
42514;SDS011;28144;49.920;18.730;2023-05-07T05:35:03;32.38;;;19.63;;
42514;SDS011;28144;49.920;18.730;2023-05-07T05:37:29;25.90;;;16.10;;
42514;SDS011;28144;49.920;18.730;2023-05-07T05:39:58;25.70;;;14.83;;
42514;SDS011;28144;49.920;18.730;2023-05-07T05:42:51;18.57;;;14.10;;
42514;SDS011;28144;49.920;18.730;2023-05-07T05:45:21;17.60;;;12.37;;
42514;SDS011;28144;49.920;18.730;2023-05-07T05:47:48;16.27;;;11.73;;
42514;SDS011;28144;49.920;18.730;2023-05-07T05:50:17;19.40;;;12.23;;
42514;SDS011;28144;49.920;18.730;2023-05-07T05:52:49;19.27;;;12.83;;
42514;SDS011;28144;49.920;18.730;2023-05-07T05:55:15;20.03;;;13.57;;
42514;SDS011;28144;49.920;18.730;2023-05-07T05:57:46;20.53;;;14.90;;
42514;SDS011;28144;49.920;18.730;2023-05-07T06:00:13;26.97;;;17.53;;
42514;SDS011;28144;49.920;18.730;2023-05-07T06:02:39;24.47;;;15.40;;
42514;SDS011;28144;49.920;18.730;2023-05-07T06:05:05;25.33;;;16.43;;
42514;SDS011;28144;49.920;18.730;2023-05-07T06:07:31;27.33;;;14.87;;
42514;SDS011;28144;49.920;18.730;2023-05-07T06:09:57;26.47;;;17.27;;
42514;SDS011;28144;49.920;18.730;2023-05-07T06:12:22;20.97;;;13.50;;
42514;SDS011;28144;49.920;18.730;2023-05-07T06:14:49;33.43;;;20.27;;
42514;SDS011;28144;49.920;18.730;2023-05-07T06:17:15;27.42;;;17.73;;
42514;SDS011;28144;49.920;18.730;2023-05-07T06:19:41;28.47;;;18.53;;
42514;SDS011;28144;49.920;18.730;2023-05-07T06:22:07;32.83;;;18.50;;
42514;SDS011;28144;49.920;18.730;2023-05-07T06:24:33;39.77;;;24.73;;
42514;SDS011;28144;49.920;18.730;2023-05-07T06:26:58;37.57;;;20.77;;
42514;SDS011;28144;49.920;18.730;2023-05-07T06:29:24;31.05;;;18.08;;
42514;SDS011;28144;49.920;18.730;2023-05-07T06:31:52;27.73;;;18.42;;
42514;SDS011;28144;49.920;18.730;2023-05-07T06:34:18;39.03;;;22.53;;
42514;SDS011;28144;49.920;18.730;2023-05-07T06:36:47;50.97;;;31.53;;
42514;SDS011;28144;49.920;18.730;2023-05-07T06:39:13;34.37;;;22.27;;
42514;SDS011;28144;49.920;18.730;2023-05-07T06:41:39;24.97;;;14.30;;
42514;SDS011;28144;49.920;18.730;2023-05-07T06:44:07;32.73;;;19.43;;
42514;SDS011;28144;49.920;18.730;2023-05-07T06:50:14;26.40;;;15.70;;
42514;SDS011;28144;49.920;18.730;2023-05-07T06:52:42;37.13;;;18.57;;
42514;SDS011;28144;49.920;18.730;2023-05-07T06:55:13;28.07;;;17.07;;
42514;SDS011;28144;49.920;18.730;2023-05-07T06:57:42;30.13;;;20.20;;
42514;SDS011;28144;49.920;18.730;2023-05-07T07:00:11;27.37;;;18.17;;
42514;SDS011;28144;49.920;18.730;2023-05-07T07:02:42;25.97;;;17.60;;
42514;SDS011;28144;49.920;18.730;2023-05-07T07:05:09;26.85;;;19.08;;
42514;SDS011;28144;49.920;18.730;2023-05-07T07:07:40;41.00;;;23.30;;
42514;SDS011;28144;49.920;18.730;2023-05-07T07:10:06;39.33;;;23.50;;
42514;SDS011;28144;49.920;18.730;2023-05-07T07:12:33;28.98;;;17.33;;
42514;SDS011;28144;49.920;18.730;2023-05-07T07:15:01;32.07;;;20.37;;
42514;SDS011;28144;49.920;18.730;2023-05-07T07:17:28;32.20;;;20.48;;
42514;SDS011;28144;49.920;18.730;2023-05-07T07:19:53;31.40;;;19.70;;
42514;SDS011;28144;49.920;18.730;2023-05-07T07:22:19;28.87;;;19.37;;
42514;SDS011;28144;49.920;18.730;2023-05-07T07:24:45;27.03;;;17.43;;
42514;SDS011;28144;49.920;18.730;2023-05-07T07:27:11;35.00;;;21.00;;
42514;SDS011;28144;49.920;18.730;2023-05-07T07:29:37;36.13;;;21.87;;
42514;SDS011;28144;49.920;18.730;2023-05-07T07:32:03;28.60;;;16.13;;
42514;SDS011;28144;49.920;18.730;2023-05-07T07:34:29;34.10;;;21.07;;
42514;SDS011;28144;49.920;18.730;2023-05-07T07:36:55;25.60;;;15.95;;
42514;SDS011;28144;49.920;18.730;2023-05-07T07:39:21;32.57;;;20.00;;
42514;SDS011;28144;49.920;18.730;2023-05-07T07:41:47;32.10;;;19.37;;
42514;SDS011;28144;49.920;18.730;2023-05-07T07:44:12;18.93;;;11.03;;
42514;SDS011;28144;49.920;18.730;2023-05-07T07:46:38;39.20;;;23.37;;
42514;SDS011;28144;49.920;18.730;2023-05-07T07:49:04;32.73;;;19.83;;
42514;SDS011;28144;49.920;18.730;2023-05-07T07:51:30;32.93;;;24.23;;
42514;SDS011;28144;49.920;18.730;2023-05-07T07:53:55;32.97;;;19.80;;
42514;SDS011;28144;49.920;18.730;2023-05-07T07:56:23;23.47;;;16.70;;
42514;SDS011;28144;49.920;18.730;2023-05-07T07:58:49;24.13;;;16.20;;
42514;SDS011;28144;49.920;18.730;2023-05-07T08:01:15;22.97;;;17.27;;
42514;SDS011;28144;49.920;18.730;2023-05-07T08:03:41;35.03;;;23.90;;
42514;SDS011;28144;49.920;18.730;2023-05-07T08:06:07;20.23;;;14.13;;
42514;SDS011;28144;49.920;18.730;2023-05-07T08:08:33;24.30;;;15.57;;
42514;SDS011;28144;49.920;18.730;2023-05-07T08:10:59;20.83;;;14.60;;
42514;SDS011;28144;49.920;18.730;2023-05-07T08:13:25;18.70;;;13.13;;
42514;SDS011;28144;49.920;18.730;2023-05-07T08:15:50;18.83;;;12.73;;
42514;SDS011;28144;49.920;18.730;2023-05-07T08:18:16;9.63;;;7.53;;
42514;SDS011;28144;49.920;18.730;2023-05-07T08:20:42;16.03;;;12.40;;
42514;SDS011;28144;49.920;18.730;2023-05-07T08:23:08;26.67;;;15.07;;
42514;SDS011;28144;49.920;18.730;2023-05-07T08:25:34;24.80;;;15.20;;
42514;SDS011;28144;49.920;18.730;2023-05-07T08:28:00;30.33;;;19.40;;
42514;SDS011;28144;49.920;18.730;2023-05-07T08:30:26;14.90;;;11.05;;
42514;SDS011;28144;49.920;18.730;2023-05-07T08:32:52;17.70;;;13.43;;
42514;SDS011;28144;49.920;18.730;2023-05-07T08:35:18;12.95;;;9.52;;
42514;SDS011;28144;49.920;18.730;2023-05-07T08:37:44;20.17;;;13.20;;
42514;SDS011;28144;49.920;18.730;2023-05-07T08:40:10;18.10;;;10.87;;
42514;SDS011;28144;49.920;18.730;2023-05-07T08:42:36;25.80;;;11.33;;
42514;SDS011;28144;49.920;18.730;2023-05-07T08:45:07;25.10;;;16.57;;
42514;SDS011;28144;49.920;18.730;2023-05-07T08:47:38;23.23;;;16.77;;
42514;SDS011;28144;49.920;18.730;2023-05-07T08:50:08;21.63;;;14.97;;
42514;SDS011;28144;49.920;18.730;2023-05-07T08:52:34;13.90;;;9.70;;
42514;SDS011;28144;49.920;18.730;2023-05-07T08:55:01;16.67;;;11.20;;
42514;SDS011;28144;49.920;18.730;2023-05-07T08:57:28;11.53;;;8.33;;
42514;SDS011;28144;49.920;18.730;2023-05-07T08:59:55;14.07;;;10.10;;
42514;SDS011;28144;49.920;18.730;2023-05-07T09:02:21;12.27;;;9.13;;
42514;SDS011;28144;49.920;18.730;2023-05-07T09:07:13;12.90;;;9.67;;
42514;SDS011;28144;49.920;18.730;2023-05-07T09:09:39;9.40;;;6.83;;
42514;SDS011;28144;49.920;18.730;2023-05-07T09:12:04;9.63;;;6.40;;
42514;SDS011;28144;49.920;18.730;2023-05-07T09:14:31;10.52;;;6.70;;
42514;SDS011;28144;49.920;18.730;2023-05-07T09:16:56;10.53;;;7.33;;
42514;SDS011;28144;49.920;18.730;2023-05-07T09:19:23;13.67;;;8.97;;
42514;SDS011;28144;49.920;18.730;2023-05-07T09:21:49;19.67;;;12.20;;
42514;SDS011;28144;49.920;18.730;2023-05-07T09:24:15;18.90;;;11.98;;
42514;SDS011;28144;49.920;18.730;2023-05-07T09:26:42;19.00;;;12.75;;
42514;SDS011;28144;49.920;18.730;2023-05-07T09:29:09;16.13;;;13.20;;
42514;SDS011;28144;49.920;18.730;2023-05-07T09:31:38;23.63;;;14.00;;
42514;SDS011;28144;49.920;18.730;2023-05-07T09:34:04;21.33;;;15.10;;
42514;SDS011;28144;49.920;18.730;2023-05-07T09:36:31;14.27;;;9.50;;
42514;SDS011;28144;49.920;18.730;2023-05-07T09:41:24;7.97;;;5.87;;
42514;SDS011;28144;49.920;18.730;2023-05-07T09:43:53;8.33;;;6.10;;
42514;SDS011;28144;49.920;18.730;2023-05-07T09:46:19;9.23;;;6.90;;
42514;SDS011;28144;49.920;18.730;2023-05-07T09:48:59;8.27;;;4.53;;
42514;SDS011;28144;49.920;18.730;2023-05-07T09:53:53;25.23;;;14.10;;
42514;SDS011;28144;49.920;18.730;2023-05-07T09:56:19;7.00;;;4.03;;
42514;SDS011;28144;49.920;18.730;2023-05-07T09:58:45;11.48;;;7.45;;
42514;SDS011;28144;49.920;18.730;2023-05-07T10:01:12;4.78;;;2.92;;
42514;SDS011;28144;49.920;18.730;2023-05-07T10:03:39;5.83;;;3.93;;
42514;SDS011;28144;49.920;18.730;2023-05-07T10:06:08;7.97;;;5.43;;
42514;SDS011;28144;49.920;18.730;2023-05-07T10:08:35;7.50;;;4.80;;
42514;SDS011;28144;49.920;18.730;2023-05-07T10:11:07;9.83;;;5.47;;
42514;SDS011;28144;49.920;18.730;2023-05-07T10:13:34;5.93;;;3.70;;
42514;SDS011;28144;49.920;18.730;2023-05-07T10:16:02;6.43;;;4.55;;
42514;SDS011;28144;49.920;18.730;2023-05-07T10:18:30;5.77;;;4.53;;
42514;SDS011;28144;49.920;18.730;2023-05-07T10:21:07;10.87;;;4.03;;
42514;SDS011;28144;49.920;18.730;2023-05-07T10:23:37;6.60;;;4.40;;
42514;SDS011;28144;49.920;18.730;2023-05-07T10:26:04;9.83;;;5.20;;
42514;SDS011;28144;49.920;18.730;2023-05-07T10:28:32;6.37;;;4.70;;
42514;SDS011;28144;49.920;18.730;2023-05-07T10:31:15;6.03;;;3.57;;
42514;SDS011;28144;49.920;18.730;2023-05-07T10:33:45;5.67;;;3.50;;
42514;SDS011;28144;49.920;18.730;2023-05-07T10:36:12;9.17;;;3.50;;
42514;SDS011;28144;49.920;18.730;2023-05-07T10:38:38;4.72;;;3.00;;
42514;SDS011;28144;49.920;18.730;2023-05-07T10:41:05;5.20;;;4.20;;
42514;SDS011;28144;49.920;18.730;2023-05-07T10:43:41;10.63;;;6.25;;
42514;SDS011;28144;49.920;18.730;2023-05-07T10:46:15;11.18;;;6.32;;
42514;SDS011;28144;49.920;18.730;2023-05-07T10:51:31;7.50;;;5.13;;
42514;SDS011;28144;49.920;18.730;2023-05-07T10:56:39;8.60;;;4.67;;
42514;SDS011;28144;49.920;18.730;2023-05-07T11:01:50;12.47;;;6.63;;
42514;SDS011;28144;49.920;18.730;2023-05-07T11:04:20;14.43;;;8.27;;
42514;SDS011;28144;49.920;18.730;2023-05-07T11:07:37;16.03;;;9.10;;
42514;SDS011;28144;49.920;18.730;2023-05-07T11:13:02;12.43;;;8.23;;
42514;SDS011;28144;49.920;18.730;2023-05-07T11:17:32;8.83;;;4.83;;
42514;SDS011;28144;49.920;18.730;2023-05-07T11:20:00;10.17;;;7.57;;
42514;SDS011;28144;49.920;18.730;2023-05-07T11:24:56;10.50;;;8.00;;
42514;SDS011;28144;49.920;18.730;2023-05-07T11:27:23;14.63;;;10.48;;
42514;SDS011;28144;49.920;18.730;2023-05-07T11:29:49;17.15;;;10.82;;
42514;SDS011;28144;49.920;18.730;2023-05-07T11:32:15;13.50;;;9.82;;
42514;SDS011;28144;49.920;18.730;2023-05-07T11:37:08;14.27;;;8.23;;
42514;SDS011;28144;49.920;18.730;2023-05-07T11:39:34;12.90;;;8.82;;
42514;SDS011;28144;49.920;18.730;2023-05-07T11:42:01;13.05;;;9.43;;
42514;SDS011;28144;49.920;18.730;2023-05-07T11:44:41;11.45;;;8.63;;
42514;SDS011;28144;49.920;18.730;2023-05-07T11:47:07;17.57;;;10.23;;
42514;SDS011;28144;49.920;18.730;2023-05-07T11:49:33;15.97;;;10.10;;
42514;SDS011;28144;49.920;18.730;2023-05-07T11:51:59;14.67;;;9.80;;
42514;SDS011;28144;49.920;18.730;2023-05-07T11:54:25;16.17;;;11.73;;
42514;SDS011;28144;49.920;18.730;2023-05-07T11:56:51;17.63;;;12.23;;
42514;SDS011;28144;49.920;18.730;2023-05-07T11:59:17;16.83;;;12.17;;
42514;SDS011;28144;49.920;18.730;2023-05-07T12:01:45;20.58;;;15.60;;
42514;SDS011;28144;49.920;18.730;2023-05-07T12:04:11;17.13;;;12.87;;
42514;SDS011;28144;49.920;18.730;2023-05-07T12:06:37;10.27;;;7.73;;
42514;SDS011;28144;49.920;18.730;2023-05-07T12:11:32;17.87;;;12.43;;
42514;SDS011;28144;49.920;18.730;2023-05-07T12:13:58;11.60;;;9.05;;
42514;SDS011;28144;49.920;18.730;2023-05-07T12:16:23;22.17;;;11.60;;
42514;SDS011;28144;49.920;18.730;2023-05-07T12:18:50;21.88;;;11.32;;
42514;SDS011;28144;49.920;18.730;2023-05-07T12:21:17;16.27;;;9.67;;
42514;SDS011;28144;49.920;18.730;2023-05-07T12:23:43;20.50;;;12.87;;
42514;SDS011;28144;49.920;18.730;2023-05-07T12:26:09;18.30;;;11.87;;
42514;SDS011;28144;49.920;18.730;2023-05-07T12:28:36;12.90;;;10.65;;
42514;SDS011;28144;49.920;18.730;2023-05-07T12:31:04;12.97;;;10.60;;
42514;SDS011;28144;49.920;18.730;2023-05-07T12:33:31;21.93;;;13.70;;
42514;SDS011;28144;49.920;18.730;2023-05-07T12:35:57;15.20;;;11.85;;
42514;SDS011;28144;49.920;18.730;2023-05-07T12:38:23;9.90;;;5.70;;
42514;SDS011;28144;49.920;18.730;2023-05-07T12:40:50;8.40;;;6.43;;
42514;SDS011;28144;49.920;18.730;2023-05-07T12:43:20;8.27;;;6.30;;
42514;SDS011;28144;49.920;18.730;2023-05-07T12:48:13;14.65;;;10.48;;
42514;SDS011;28144;49.920;18.730;2023-05-07T12:50:38;20.50;;;11.27;;
42514;SDS011;28144;49.920;18.730;2023-05-07T12:53:04;13.10;;;10.05;;
42514;SDS011;28144;49.920;18.730;2023-05-07T12:55:31;15.52;;;9.95;;
42514;SDS011;28144;49.920;18.730;2023-05-07T12:58:00;12.27;;;10.05;;
42514;SDS011;28144;49.920;18.730;2023-05-07T13:00:36;10.10;;;7.60;;
42514;SDS011;28144;49.920;18.730;2023-05-07T13:03:02;10.80;;;7.93;;
42514;SDS011;28144;49.920;18.730;2023-05-07T13:05:28;9.97;;;8.30;;
42514;SDS011;28144;49.920;18.730;2023-05-07T13:07:55;9.83;;;8.47;;
42514;SDS011;28144;49.920;18.730;2023-05-07T13:10:21;10.90;;;8.77;;
42514;SDS011;28144;49.920;18.730;2023-05-07T13:12:49;11.83;;;8.80;;
42514;SDS011;28144;49.920;18.730;2023-05-07T13:15:14;16.27;;;12.02;;
42514;SDS011;28144;49.920;18.730;2023-05-07T13:17:42;27.65;;;14.32;;
42514;SDS011;28144;49.920;18.730;2023-05-07T13:20:11;7.07;;;4.68;;
42514;SDS011;28144;49.920;18.730;2023-05-07T13:22:38;13.73;;;9.57;;
42514;SDS011;28144;49.920;18.730;2023-05-07T13:25:04;11.93;;;9.52;;
42514;SDS011;28144;49.920;18.730;2023-05-07T13:27:31;12.10;;;8.88;;
42514;SDS011;28144;49.920;18.730;2023-05-07T13:29:57;11.07;;;8.97;;
42514;SDS011;28144;49.920;18.730;2023-05-07T13:32:23;15.13;;;8.95;;
42514;SDS011;28144;49.920;18.730;2023-05-07T13:34:48;15.33;;;10.33;;
42514;SDS011;28144;49.920;18.730;2023-05-07T13:37:14;19.20;;;15.87;;
42514;SDS011;28144;49.920;18.730;2023-05-07T13:39:40;8.73;;;6.47;;
42514;SDS011;28144;49.920;18.730;2023-05-07T13:42:06;18.55;;;12.98;;
42514;SDS011;28144;49.920;18.730;2023-05-07T13:44:32;13.87;;;11.00;;
42514;SDS011;28144;49.920;18.730;2023-05-07T13:46:58;12.43;;;8.93;;
42514;SDS011;28144;49.920;18.730;2023-05-07T13:49:24;21.80;;;12.27;;
42514;SDS011;28144;49.920;18.730;2023-05-07T13:51:50;6.63;;;5.40;;
42514;SDS011;28144;49.920;18.730;2023-05-07T13:54:15;12.00;;;9.07;;
42514;SDS011;28144;49.920;18.730;2023-05-07T13:56:41;14.67;;;10.30;;
42514;SDS011;28144;49.920;18.730;2023-05-07T13:59:07;8.87;;;6.80;;
42514;SDS011;28144;49.920;18.730;2023-05-07T14:01:33;13.55;;;10.52;;
42514;SDS011;28144;49.920;18.730;2023-05-07T14:03:59;22.20;;;11.00;;
42514;SDS011;28144;49.920;18.730;2023-05-07T14:06:25;17.57;;;11.67;;
42514;SDS011;28144;49.920;18.730;2023-05-07T14:08:51;12.13;;;10.33;;
42514;SDS011;28144;49.920;18.730;2023-05-07T14:11:17;14.93;;;10.27;;
42514;SDS011;28144;49.920;18.730;2023-05-07T14:13:42;14.10;;;11.40;;
42514;SDS011;28144;49.920;18.730;2023-05-07T14:16:08;17.60;;;13.35;;
42514;SDS011;28144;49.920;18.730;2023-05-07T14:18:34;16.60;;;12.90;;
42514;SDS011;28144;49.920;18.730;2023-05-07T14:21:02;17.67;;;12.37;;
42514;SDS011;28144;49.920;18.730;2023-05-07T14:23:29;13.70;;;10.57;;
42514;SDS011;28144;49.920;18.730;2023-05-07T14:25:55;11.87;;;8.23;;
42514;SDS011;28144;49.920;18.730;2023-05-07T14:28:22;13.53;;;10.40;;
42514;SDS011;28144;49.920;18.730;2023-05-07T14:30:48;12.68;;;9.80;;
42514;SDS011;28144;49.920;18.730;2023-05-07T14:33:14;13.90;;;10.17;;
42514;SDS011;28144;49.920;18.730;2023-05-07T14:35:40;10.93;;;8.45;;
42514;SDS011;28144;49.920;18.730;2023-05-07T14:38:06;15.50;;;9.33;;
42514;SDS011;28144;49.920;18.730;2023-05-07T14:40:32;14.63;;;8.57;;
42514;SDS011;28144;49.920;18.730;2023-05-07T14:42:57;12.00;;;9.17;;
42514;SDS011;28144;49.920;18.730;2023-05-07T14:45:23;11.97;;;8.30;;
42514;SDS011;28144;49.920;18.730;2023-05-07T14:47:49;12.97;;;8.23;;
42514;SDS011;28144;49.920;18.730;2023-05-07T14:50:14;10.53;;;8.87;;
42514;SDS011;28144;49.920;18.730;2023-05-07T14:52:40;7.07;;;5.57;;
42514;SDS011;28144;49.920;18.730;2023-05-07T14:55:06;8.47;;;6.43;;
42514;SDS011;28144;49.920;18.730;2023-05-07T14:57:32;8.88;;;6.35;;